Time;durP1;ratioP1;P1;durP2;ratioP2;P2;SDS_P1;SDS_P2;PMS_P1;PMS_P2;Temp;Humidity;BMP_temperature;BMP_pressure;BME280_temperature;BME280_humidity;BME280_pressure;Samples;Min_cycle;Max_cycle;Signal;HPM_P1;HPM_P2
2022/01/31 00:00:16;;;;;;;14.27;4.20;;;5.10;65.50;;;4.08;49.11;94942.59;4960337;28;20225;-89
2022/01/31 00:02:46;;;;;;;11.80;3.75;;;5.00;65.40;;;4.07;49.25;94929.78;4946839;29;20529;-89
2022/01/31 00:05:15;;;;;;;11.05;3.10;;;5.00;65.50;;;3.99;49.10;94918.38;4940419;29;20237;-88
2022/01/31 00:07:44;;;;;;;12.85;3.70;;;5.10;65.50;;;4.06;49.13;94928.94;4936816;29;20251;-89
2022/01/31 00:10:13;;;;;;;12.40;3.70;;;5.00;65.50;;;3.98;49.04;94923.72;4937010;28;20224;-89
2022/01/31 00:13:00;;;;;;;12.98;3.15;;;5.10;65.50;;;3.98;49.18;94919.34;4940676;29;20203;-89
2022/01/31 00:15:30;;;;;;;10.93;3.63;;;5.10;65.50;;;3.99;48.64;94910.59;4940370;29;20223;-89
2022/01/31 00:17:58;;;;;;;13.55;3.92;;;5.00;65.30;;;3.99;48.88;94915.78;4940161;29;20199;-88
2022/01/31 00:20:26;;;;;;;7.82;3.20;;;5.00;65.50;;;4.03;48.59;94915.47;4940173;29;20577;-89
2022/01/31 00:22:54;;;;;;;9.98;3.33;;;5.00;65.50;;;4.02;48.81;94891.31;4924827;29;20278;-89
2022/01/31 00:25:22;;;;;;;11.95;3.33;;;5.00;65.30;;;4.01;48.71;94894.88;4949791;29;20334;-89
2022/01/31 00:27:51;;;;;;;15.65;4.03;;;5.00;65.20;;;4.02;48.79;94899.09;4937104;29;20204;-88
2022/01/31 00:30:18;;;;;;;10.82;3.72;;;5.00;65.20;;;4.05;48.76;94888.38;4937417;29;20326;-89
2022/01/31 00:32:47;;;;;;;12.18;3.88;;;5.10;65.30;;;4.02;48.28;94883.50;4946548;29;20208;-89
2022/01/31 00:35:15;;;;;;;10.63;3.47;;;5.00;65.20;;;4.00;48.81;94886.28;4923513;28;20282;-88
2022/01/31 00:37:45;;;;;;;11.07;3.40;;;5.00;65.20;;;3.99;48.77;94874.25;4938606;29;20299;-89
2022/01/31 00:40:13;;;;;;;11.70;4.07;;;5.00;66.00;;;4.02;48.39;94888.72;4951900;28;20222;-90
2022/01/31 00:42:43;;;;;;;11.80;4.03;;;5.00;65.00;;;4.03;48.54;94887.75;4943637;28;20198;-89
2022/01/31 00:45:15;;;;;;;13.27;3.78;;;5.00;65.10;;;4.01;48.29;94892.25;4928835;29;20238;-91
2022/01/31 00:47:47;;;;;;;10.07;2.90;;;5.00;64.90;;;4.04;48.44;94883.34;4921324;29;20208;-89
2022/01/31 00:50:19;;;;;;;9.50;3.53;;;5.00;65.00;;;3.98;48.17;94888.19;4905488;29;20231;-89
2022/01/31 00:52:47;;;;;;;10.25;3.17;;;5.00;64.90;;;4.05;48.23;94885.78;4936279;29;20208;-89
2022/01/31 00:55:15;;;;;;;12.05;3.03;;;5.00;64.90;;;4.01;47.94;94874.91;4937319;29;20228;-89
2022/01/31 00:57:43;;;;;;;10.45;3.75;;;5.00;64.70;;;4.00;47.55;94877.66;4936018;29;20235;-90
2022/01/31 01:00:13;;;;;;;11.40;4.00;;;5.00;64.60;;;4.01;47.88;94889.66;4933437;29;20235;-89
2022/01/31 01:02:42;;;;;;;15.10;3.25;;;5.00;64.60;;;3.99;47.51;94863.03;4952766;28;20689;-89
2022/01/31 01:05:10;;;;;;;16.20;3.25;;;5.00;64.50;;;3.98;47.03;94858.84;4920572;29;20251;-89
2022/01/31 01:07:39;;;;;;;11.85;3.80;;;5.00;64.30;;;3.99;47.33;94866.47;4943282;28;20575;-90
2022/01/31 01:10:14;;;;;;;12.05;3.70;;;5.00;64.20;;;4.01;47.27;94867.13;4939009;29;20555;-90
2022/01/31 01:12:43;;;;;;;12.45;3.30;;;5.00;64.20;;;3.97;46.95;94846.84;4923738;29;20211;-90
2022/01/31 01:15:12;;;;;;;16.45;3.47;;;5.00;64.10;;;4.00;47.14;94862.91;4939153;29;20242;-89
2022/01/31 01:17:40;;;;;;;12.40;3.60;;;5.00;64.00;;;3.97;46.76;94845.03;4939075;29;20211;-89
2022/01/31 01:20:11;;;;;;;11.15;3.70;;;5.00;64.00;;;3.98;46.40;94849.28;4939319;29;20246;-89
2022/01/31 01:22:39;;;;;;;13.25;3.70;;;4.90;63.80;;;3.95;46.46;94823.59;4954808;29;20254;-90
2022/01/31 01:25:08;;;;;;;14.60;3.58;;;5.00;63.80;;;3.97;46.50;94821.69;4955007;28;20772;-90
2022/01/31 01:27:36;;;;;;;16.25;3.90;;;4.90;63.60;;;3.93;45.81;94815.19;4923179;29;20296;-90
2022/01/31 01:30:06;;;;;;;16.27;4.20;;;4.90;63.50;;;3.90;46.13;94819.88;4923505;29;20318;-90
2022/01/31 01:32:44;;;;;;;13.48;4.00;;;4.90;63.60;;;3.88;45.77;94829.56;4949769;29;20210;-90
2022/01/31 01:35:13;;;;;;;15.65;3.83;;;4.90;63.50;;;3.91;46.21;94800.75;4954724;29;20215;-90
2022/01/31 01:37:41;;;;;;;12.45;3.42;;;4.90;63.60;;;3.85;46.08;94804.75;4951836;28;20200;-90
2022/01/31 01:40:10;;;;;;;16.95;3.97;;;4.90;63.60;;;3.82;46.32;94790.31;4920075;29;20732;-90
2022/01/31 01:42:40;;;;;;;12.55;3.70;;;4.90;63.60;;;3.84;46.32;94785.78;4954354;29;20200;-89
2022/01/31 01:45:09;;;;;;;11.95;3.05;;;4.80;63.60;;;3.85;46.41;94789.97;4939071;29;20262;-89
2022/01/31 01:47:39;;;;;;;8.88;2.78;;;4.80;63.60;;;3.86;46.48;94803.78;4923303;29;20213;-89
2022/01/31 01:50:08;;;;;;;12.95;3.55;;;4.80;63.60;;;3.81;46.61;94791.28;4938881;28;20235;-90
2022/01/31 01:52:37;;;;;;;9.25;3.10;;;4.80;63.60;;;3.70;46.84;94788.94;4932740;29;20259;-90
2022/01/31 01:55:07;;;;;;;16.73;3.40;;;4.80;63.60;;;3.67;46.78;94790.06;4938845;29;20227;-89
2022/01/31 01:57:34;;;;;;;14.25;4.07;;;4.70;63.60;;;3.62;46.99;94776.72;4935070;29;20215;-88
2022/01/31 02:00:06;;;;;;;13.32;3.67;;;4.80;63.70;;;3.53;46.80;94756.91;4924867;29;20250;-89
2022/01/31 02:02:36;;;;;;;12.65;3.45;;;4.70;63.60;;;3.50;46.90;94754.59;4938950;29;20203;-90
2022/01/31 02:05:10;;;;;;;13.02;3.63;;;4.70;63.60;;;3.46;47.20;94746.31;4932897;29;20221;-89
2022/01/31 02:07:40;;;;;;;13.63;3.30;;;4.70;63.50;;;3.40;46.91;94740.91;4935269;29;20299;-89
2022/01/31 02:10:12;;;;;;;14.15;3.58;;;4.60;63.60;;;3.37;46.89;94744.63;4928212;29;20239;-90
2022/01/31 02:13:05;;;;;;;8.32;2.72;;;4.60;63.70;;;3.34;47.18;94729.38;4940958;29;20431;-89
2022/01/31 02:15:52;;;;;;;9.65;3.45;;;4.50;63.60;;;3.32;47.45;94745.09;4945609;28;20633;-89
2022/01/31 02:18:26;;;;;;;14.75;3.60;;;4.50;63.70;;;3.32;47.26;94744.25;4938347;29;20209;-89
2022/01/31 02:20:57;;;;;;;11.52;3.33;;;4.40;63.80;;;3.27;47.77;94731.78;4954627;28;20223;-89
2022/01/31 02:23:26;;;;;;;14.02;3.55;;;4.40;63.90;;;3.30;47.75;94725.47;4934904;29;20275;-90
2022/01/31 02:26:12;;;;;;;10.10;3.65;;;4.40;64.00;;;3.36;47.62;94723.06;4947527;29;20211;-88
2022/01/31 02:28:53;;;;;;;12.32;3.63;;;4.40;64.10;;;3.35;47.57;94690.31;4934852;29;20239;-90
2022/01/31 02:31:22;;;;;;;15.05;3.50;;;4.40;64.20;;;3.39;47.62;94687.44;4934830;29;20575;-89
2022/01/31 02:33:50;;;;;;;15.90;4.00;;;4.40;64.10;;;3.40;47.82;94678.69;4937764;28;20196;-90
2022/01/31 02:36:20;;;;;;;14.45;3.45;;;4.40;64.10;;;3.42;47.71;94677.59;4927693;29;20715;-89
2022/01/31 02:38:48;;;;;;;9.23;3.05;;;4.50;64.20;;;3.46;47.49;94673.69;4937753;29;20210;-89
2022/01/31 02:41:16;;;;;;;11.48;3.08;;;4.40;64.20;;;3.48;47.63;94666.59;4937907;29;20199;-90
2022/01/31 02:43:50;;;;;;;12.50;3.53;;;4.50;65.20;;;3.49;47.80;94657.84;4922137;29;20210;-90
2022/01/31 02:46:25;;;;;;;8.70;3.00;;;4.50;64.40;;;3.50;47.71;94662.06;4939431;28;20246;-89
2022/01/31 02:48:57;;;;;;;9.20;3.15;;;4.50;64.30;;;3.47;47.84;94654.59;4942567;28;20240;-90
2022/01/31 02:51:27;;;;;;;12.27;3.40;;;4.50;64.40;;;3.43;48.03;94653.28;4949094;29;20199;-90
2022/01/31 02:53:55;;;;;;;10.63;3.08;;;4.50;64.40;;;3.42;48.20;94638.69;4937795;29;20573;-90
2022/01/31 02:56:23;;;;;;;9.35;2.85;;;4.60;64.70;;;3.48;48.12;94642.47;4936686;29;20203;-89
2022/01/31 02:58:51;;;;;;;14.15;3.33;;;4.50;64.50;;;3.43;48.31;94636.91;4921424;29;20217;-90
2022/01/31 03:01:22;;;;;;;11.75;3.30;;;4.40;64.40;;;3.39;48.17;94622.63;4937800;29;20238;-90
2022/01/31 03:03:50;;;;;;;13.43;3.70;;;4.50;64.60;;;3.42;48.00;94633.50;4941221;29;20298;-90
2022/01/31 03:06:18;;;;;;;9.68;2.97;;;4.40;64.70;;;3.37;48.20;94620.19;4941133;29;20206;-90
2022/01/31 03:08:47;;;;;;;15.32;3.88;;;4.50;64.70;;;3.39;48.39;94620.03;4941870;29;20269;-91
2022/01/31 03:11:19;;;;;;;11.07;3.67;;;4.50;64.70;;;3.36;48.60;94621.16;4942397;29;20192;-89
2022/01/31 03:14:05;;;;;;;14.13;3.35;;;4.40;64.60;;;3.34;48.68;94597.16;4944145;29;20227;-90
2022/01/31 03:16:40;;;;;;;15.50;3.30;;;4.40;64.70;;;3.32;48.74;94596.50;4941624;29;20231;-90
2022/01/31 03:19:19;;;;;;;14.63;3.83;;;4.50;64.80;;;3.30;48.59;94582.91;4942959;29;20222;-90
2022/01/31 03:21:52;;;;;;;11.73;3.60;;;4.40;64.70;;;3.31;48.68;94585.34;4941394;29;20242;-90
2022/01/31 03:24:24;;;;;;;9.63;3.78;;;4.40;64.70;;;3.27;48.69;94558.09;4941631;29;20254;-90
2022/01/31 03:26:51;;;;;;;11.50;3.50;;;4.40;64.90;;;3.31;48.60;94564.59;4922078;29;20215;-89
2022/01/31 03:29:19;;;;;;;11.55;3.55;;;4.40;64.80;;;3.29;48.50;94563.94;4922663;29;20247;-90
2022/01/31 03:31:47;;;;;;;10.43;3.33;;;4.30;64.80;;;3.23;48.47;94553.38;4937474;29;20204;-89
2022/01/31 03:34:15;;;;;;;11.70;3.55;;;4.30;64.80;;;3.28;48.65;94564.09;4937924;29;20224;-89
2022/01/31 03:36:43;;;;;;;12.82;3.65;;;4.30;64.80;;;3.29;48.69;94557.94;4950335;29;20236;-90
2022/01/31 03:39:17;;;;;;;10.90;3.20;;;4.30;64.80;;;3.26;48.96;94566.00;4952446;29;20272;-90
2022/01/31 03:41:44;;;;;;;13.60;3.10;;;4.30;64.80;;;3.22;48.69;94546.56;4937859;28;20207;-89
2022/01/31 03:44:13;;;;;;;8.63;2.78;;;4.30;64.90;;;3.25;48.63;94554.84;4937529;29;20348;-90
2022/01/31 03:46:42;;;;;;;7.15;2.97;;;4.30;64.70;;;3.21;48.67;94545.78;4953806;28;20216;-89
2022/01/31 03:49:10;;;;;;;9.00;2.90;;;4.30;64.90;;;3.25;48.51;94547.06;4937486;29;20231;-89
2022/01/31 03:51:43;;;;;;;12.80;3.25;;;4.20;64.80;;;3.16;48.87;94535.88;4938042;29;20204;-90
2022/01/31 03:54:15;;;;;;;9.98;3.45;;;4.20;64.80;;;3.14;48.32;94537.00;4953424;28;20310;-89
2022/01/31 03:56:43;;;;;;;13.13;3.70;;;4.30;64.90;;;3.14;48.70;94540.38;4937935;29;20674;-90
2022/01/31 03:59:31;;;;;;;10.48;3.28;;;4.20;64.80;;;3.16;48.66;94537.63;4947534;28;20697;-89
2022/01/31 04:02:02;;;;;;;13.38;3.55;;;4.20;64.80;;;3.08;49.00;94512.50;4958344;28;20688;-90
2022/01/31 04:04:31;;;;;;;11.20;3.28;;;4.30;64.90;;;3.04;48.77;94503.44;4941065;29;20694;-90
2022/01/31 04:06:58;;;;;;;12.57;3.08;;;4.20;65.00;;;3.00;48.68;94500.34;4941108;29;20286;-89
2022/01/31 04:09:27;;;;;;;10.20;3.30;;;4.20;64.80;;;3.03;48.49;94496.63;4941164;29;20227;-89
2022/01/31 04:11:55;;;;;;;10.57;3.50;;;4.10;64.80;;;2.94;48.81;94479.41;4941595;28;20211;-89
2022/01/31 04:14:26;;;;;;;10.10;3.33;;;4.10;64.80;;;2.94;49.04;94477.66;4939625;29;20694;-89
2022/01/31 04:16:55;;;;;;;12.75;3.45;;;4.10;64.80;;;2.83;48.67;94449.41;4956650;29;20642;-90
2022/01/31 04:19:24;;;;;;;9.63;3.00;;;4.10;64.70;;;2.77;48.54;94442.25;4956564;28;20727;-89
2022/01/31 04:21:52;;;;;;;10.00;3.28;;;4.00;64.70;;;2.72;49.08;94437.53;4943568;28;20306;-89
2022/01/31 04:24:23;;;;;;;8.80;2.90;;;4.00;64.70;;;2.69;48.73;94411.97;4959932;28;20229;-90
2022/01/31 04:27:05;;;;;;;11.60;3.03;;;3.90;64.80;;;2.64;48.78;94385.75;4958370;28;20222;-89
2022/01/31 04:29:39;;;;;;;10.20;3.42;;;3.90;64.70;;;2.52;48.90;94383.41;4948295;29;20282;-90
2022/01/31 04:32:07;;;;;;;10.95;2.95;;;3.80;64.70;;;2.56;49.19;94397.69;4938142;29;20294;-90
2022/01/31 04:34:35;;;;;;;10.63;3.25;;;3.70;64.70;;;2.43;48.99;94371.41;4956221;29;20583;-89
2022/01/31 04:37:03;;;;;;;9.60;3.53;;;3.70;64.80;;;2.43;48.89;94375.75;4939196;29;20211;-89
2022/01/31 04:39:31;;;;;;;12.57;2.97;;;3.60;64.80;;;2.43;49.22;94383.53;4955701;29;20226;-89
2022/01/31 04:41:59;;;;;;;9.63;2.90;;;3.70;65.00;;;2.45;49.31;94397.94;4971848;28;20199;-89
2022/01/31 04:44:27;;;;;;;9.18;3.00;;;3.60;65.00;;;2.35;49.35;94369.56;4972009;28;20254;-89
2022/01/31 04:46:55;;;;;;;8.43;2.70;;;3.60;65.00;;;2.35;49.36;94366.19;4951013;29;20203;-89
2022/01/31 04:49:23;;;;;;;7.63;2.75;;;3.60;65.10;;;2.39;49.08;94385.59;4956158;29;20227;-90
2022/01/31 04:51:51;;;;;;;9.88;3.05;;;3.60;65.10;;;2.41;49.32;94373.34;4939611;28;20254;-89
2022/01/31 04:54:19;;;;;;;8.07;2.55;;;3.50;65.20;;;2.35;49.39;94359.22;4971079;28;20234;-89
2022/01/31 04:56:47;;;;;;;12.85;3.40;;;3.50;65.20;;;2.38;49.46;94358.09;4956206;29;20211;-90
2022/01/31 04:59:15;;;;;;;8.57;3.10;;;3.50;65.30;;;2.39;49.85;94363.16;4971999;28;20271;-90
2022/01/31 05:01:43;;;;;;;9.48;2.90;;;3.50;65.40;;;2.45;49.80;94363.47;4953232;29;20290;-89
2022/01/31 05:04:11;;;;;;;7.88;2.67;;;3.50;65.40;;;2.41;49.52;94350.03;4955313;28;20231;-90
2022/01/31 05:06:40;;;;;;;8.70;3.28;;;3.50;65.40;;;2.49;49.43;94350.09;4948121;29;20203;-89
2022/01/31 05:09:10;;;;;;;7.28;2.80;;;3.50;65.40;;;2.46;49.42;94339.22;4939848;29;20760;-90
2022/01/31 05:11:38;;;;;;;7.78;3.22;;;3.50;65.50;;;2.43;50.13;94334.34;4938418;29;20291;-89
2022/01/31 05:14:06;;;;;;;11.00;3.25;;;3.60;65.70;;;2.45;49.87;94315.09;4955350;29;20341;-90
2022/01/31 05:16:34;;;;;;;6.50;2.63;;;3.50;65.60;;;2.49;49.56;94305.25;4951346;28;20551;-89
2022/01/31 05:19:02;;;;;;;8.60;3.10;;;3.60;65.70;;;2.53;49.58;94296.22;4938470;29;20227;-90
2022/01/31 05:21:30;;;;;;;6.03;2.33;;;3.60;65.70;;;2.59;49.50;94293.00;4971548;28;20290;-90
2022/01/31 05:23:59;;;;;;;11.23;3.30;;;3.60;65.60;;;2.58;49.80;94281.03;4971407;28;20693;-92
2022/01/31 05:26:29;;;;;;;8.45;2.60;;;3.60;65.60;;;2.60;49.44;94273.09;4939370;29;20211;-91
2022/01/31 05:28:58;;;;;;;11.10;2.70;;;3.60;65.70;;;2.56;49.41;94282.94;4956321;28;20219;-89
2022/01/31 05:31:25;;;;;;;10.93;2.70;;;3.60;65.60;;;2.53;49.66;94281.50;4938773;29;20660;-89
2022/01/31 05:33:53;;;;;;;7.57;2.85;;;3.60;65.60;;;2.53;49.44;94255.59;4951721;29;20213;-89
2022/01/31 05:36:21;;;;;;;10.38;2.35;;;3.60;65.60;;;2.55;49.78;94250.25;4943009;29;20298;-89
2022/01/31 05:38:49;;;;;;;7.97;2.80;;;3.60;65.70;;;2.56;49.55;94259.66;4938552;29;20211;-89
2022/01/31 05:41:19;;;;;;;13.30;3.10;;;3.60;65.70;;;2.49;49.75;94254.31;4939152;29;20208;-89
2022/01/31 05:43:47;;;;;;;7.95;2.85;;;3.60;65.70;;;2.49;49.81;94269.84;4943847;28;20261;-88
2022/01/31 05:46:16;;;;;;;9.07;2.63;;;3.60;65.70;;;2.46;49.82;94261.56;4937428;29;20745;-89
2022/01/31 05:48:44;;;;;;;7.55;2.67;;;3.60;65.70;;;2.51;49.55;94277.44;4954679;29;20215;-90
2022/01/31 05:51:18;;;;;;;7.10;3.20;;;3.60;65.70;;;2.45;49.65;94250.41;4938841;29;20269;-89
2022/01/31 05:53:47;;;;;;;7.15;2.35;;;3.50;65.70;;;2.42;50.02;94253.31;4938887;28;20206;-89
2022/01/31 05:56:17;;;;;;;8.95;2.72;;;3.50;65.60;;;2.37;49.94;94251.19;4954557;28;20198;-90
2022/01/31 05:58:46;;;;;;;9.43;2.53;;;3.60;65.80;;;2.44;49.62;94250.56;4970514;28;20287;-89
2022/01/31 06:01:14;;;;;;;8.27;3.10;;;3.50;65.70;;;2.43;49.73;94251.53;4954454;28;20646;-89
2022/01/31 06:03:42;;;;;;;12.27;2.90;;;3.50;65.80;;;2.35;50.27;94229.03;4938263;29;20227;-90
2022/01/31 06:06:10;;;;;;;12.98;2.80;;;3.50;65.80;;;2.33;50.02;94225.78;4954444;28;20203;-89
2022/01/31 06:08:38;;;;;;;8.85;2.70;;;3.50;65.80;;;2.33;49.76;94223.19;4941223;28;20233;-90
2022/01/31 06:11:07;;;;;;;8.50;2.70;;;3.50;65.80;;;2.37;49.97;94222.72;4957501;28;20226;-89
2022/01/31 06:13:35;;;;;;;8.35;2.65;;;3.50;65.80;;;2.33;50.12;94224.03;4943433;29;20212;-89
2022/01/31 06:16:03;;;;;;;9.52;2.90;;;3.40;65.70;;;2.33;49.79;94224.03;4929423;29;20211;-90
2022/01/31 06:18:31;;;;;;;9.00;2.80;;;3.40;65.80;;;2.24;50.61;94222.38;4950926;28;20247;-89
2022/01/31 06:20:58;;;;;;;8.65;3.00;;;3.40;66.00;;;2.28;50.71;94228.84;4950904;29;20207;-89
2022/01/31 06:23:28;;;;;;;11.88;2.88;;;3.40;66.00;;;2.28;50.45;94233.22;4952472;28;20230;-90
2022/01/31 06:25:56;;;;;;;7.90;2.58;;;3.40;66.10;;;2.31;50.45;94241.47;4938300;29;20219;-89
2022/01/31 06:28:24;;;;;;;9.63;2.78;;;3.40;66.10;;;2.28;50.61;94220.28;4938358;29;20203;-90
2022/01/31 06:30:58;;;;;;;11.15;2.90;;;3.40;66.20;;;2.28;50.62;94218.50;4938371;29;20300;-90
2022/01/31 06:33:28;;;;;;;9.50;2.97;;;3.40;66.30;;;2.36;51.07;94233.25;4936562;29;20208;-89
2022/01/31 06:35:56;;;;;;;12.60;3.10;;;3.50;66.50;;;2.33;51.20;94210.25;4935879;29;20231;-90
2022/01/31 06:38:25;;;;;;;13.05;3.30;;;3.50;66.60;;;2.29;51.18;94204.59;4942062;29;20207;-90
2022/01/31 06:40:54;;;;;;;12.15;3.05;;;3.40;66.60;;;2.31;50.95;94210.44;4944166;28;20227;-90
2022/01/31 06:43:22;;;;;;;11.75;3.15;;;3.40;66.50;;;2.37;51.11;94209.00;4925692;29;20230;-89
2022/01/31 06:45:50;;;;;;;9.52;2.88;;;3.40;66.60;;;2.33;51.42;94198.16;4942902;28;20238;-87
2022/01/31 06:48:18;;;;;;;9.70;3.03;;;3.40;66.70;;;2.38;51.25;94201.06;4952137;28;20246;-89
2022/01/31 06:50:46;;;;;;;7.00;2.70;;;3.50;66.70;;;2.39;51.13;94179.41;4951762;29;20232;-90
2022/01/31 06:53:16;;;;;;;8.38;2.70;;;3.50;67.60;;;2.39;51.06;94178.56;4935956;29;20207;-90
2022/01/31 06:55:44;;;;;;;8.40;2.83;;;3.50;66.70;;;2.43;51.10;94187.66;4930111;29;20230;-90
2022/01/31 06:58:12;;;;;;;10.40;3.50;;;3.50;67.60;;;2.46;50.95;94166.59;4937193;29;20266;-89
2022/01/31 07:00:39;;;;;;;7.55;2.83;;;3.50;66.70;;;2.48;51.17;94161.25;4921928;29;20757;-89
2022/01/31 07:03:13;;;;;;;9.65;2.78;;;3.50;66.70;;;2.43;51.35;94143.66;4936961;29;20286;-88
2022/01/31 07:05:43;;;;;;;8.95;3.17;;;3.50;66.80;;;2.48;51.34;94141.38;4917185;28;20227;-89
2022/01/31 07:08:13;;;;;;;7.30;2.42;;;3.50;66.70;;;2.51;50.98;94130.69;4924474;29;20222;-89
2022/01/31 07:10:41;;;;;;;7.63;3.03;;;3.50;66.70;;;2.56;51.19;94130.22;4945447;29;20219;-89
2022/01/31 07:13:23;;;;;;;7.45;2.80;;;3.60;66.80;;;2.58;50.86;94141.22;4936968;29;20658;-90
2022/01/31 07:15:52;;;;;;;9.05;3.10;;;3.50;66.70;;;2.62;51.26;94141.72;4918860;29;20238;-89
2022/01/31 07:18:20;;;;;;;9.48;2.88;;;3.60;66.80;;;2.61;50.96;94143.47;4938035;29;20199;-89
2022/01/31 07:20:51;;;;;;;13.68;2.88;;;3.60;66.80;;;2.59;51.16;94129.06;4922670;28;20233;-87
2022/01/31 07:23:39;;;;;;;10.25;3.03;;;3.60;66.80;;;2.63;51.28;94125.22;4925833;29;20204;-90
2022/01/31 07:26:08;;;;;;;7.30;2.92;;;3.60;66.80;;;2.69;51.15;94127.16;4932619;29;20646;-89
2022/01/31 07:28:35;;;;;;;9.18;3.70;;;3.60;66.80;;;2.67;51.41;94116.97;4943821;29;20246;-89
2022/01/31 07:31:03;;;;;;;7.07;2.95;;;3.70;67.00;;;2.72;51.47;94126.81;4923611;29;20232;-89
2022/01/31 07:33:31;;;;;;;8.18;3.10;;;3.70;67.00;;;2.76;51.04;94122.94;4946134;28;20195;-89
2022/01/31 07:35:59;;;;;;;4.63;2.33;;;3.70;67.00;;;2.85;50.99;94121.94;4948169;29;20207;-88
2022/01/31 07:38:27;;;;;;;9.75;2.70;;;3.80;67.00;;;2.82;51.16;94118.88;4932396;29;20658;-89
2022/01/31 07:40:57;;;;;;;9.05;2.70;;;3.80;67.00;;;2.80;51.15;94110.47;4939230;29;20271;-90
2022/01/31 07:43:27;;;;;;;9.32;2.60;;;3.80;67.10;;;2.89;51.07;94112.06;4933372;29;20247;-90
2022/01/31 07:45:55;;;;;;;9.23;2.90;;;3.80;67.00;;;2.92;51.23;94122.09;4933100;29;20239;-90
2022/01/31 07:48:26;;;;;;;6.40;2.60;;;3.90;67.10;;;2.92;51.09;94108.34;4932056;29;20247;-90
2022/01/31 07:50:54;;;;;;;7.10;2.85;;;3.90;67.10;;;2.92;50.96;94100.56;4934903;29;20762;-89
2022/01/31 07:53:22;;;;;;;7.18;2.83;;;3.90;67.10;;;2.91;51.16;94089.41;4936262;29;20243;-89
2022/01/31 07:55:50;;;;;;;11.85;3.40;;;3.90;67.10;;;3.01;51.78;94087.44;4942025;29;20677;-89
2022/01/31 07:58:20;;;;;;;8.38;2.70;;;3.90;67.20;;;2.96;50.85;94089.72;4944598;28;20211;-89
2022/01/31 08:00:48;;;;;;;8.70;2.50;;;3.90;67.10;;;2.97;51.42;94075.00;4919333;28;20306;-89
2022/01/31 08:03:16;;;;;;;6.53;2.88;;;3.90;67.10;;;3.03;51.10;94093.25;4935368;29;20196;-88
2022/01/31 08:05:44;;;;;;;7.05;3.05;;;4.00;67.20;;;3.04;51.70;94083.72;4936591;29;20231;-89
2022/01/31 08:08:12;;;;;;;11.45;2.75;;;4.10;67.40;;;3.14;51.37;94084.34;4928519;28;21536;-88
2022/01/31 08:10:42;;;;;;;5.18;2.63;;;4.10;67.30;;;3.15;51.68;94085.94;4945558;29;20220;-90
2022/01/31 08:13:14;;;;;;;9.95;2.88;;;4.10;67.30;;;3.20;51.40;94098.41;4935464;29;20303;-90
2022/01/31 08:16:00;;;;;;;7.18;3.05;;;4.10;67.40;;;3.28;51.23;94105.34;4946171;28;20223;-89
2022/01/31 08:18:32;;;;;;;10.30;2.80;;;4.20;67.30;;;3.30;51.41;94083.47;4951982;29;20355;-89
2022/01/31 08:21:03;;;;;;;9.13;3.30;;;4.20;67.40;;;3.29;51.89;94074.06;4953725;29;20199;-89
2022/01/31 08:23:34;;;;;;;10.38;3.00;;;4.20;67.40;;;3.31;51.90;94068.75;4956084;29;20675;-89
2022/01/31 08:26:08;;;;;;;10.30;3.00;;;4.30;67.50;;;3.37;51.75;94070.66;4936902;29;20204;-89
2022/01/31 08:28:40;;;;;;;11.77;3.13;;;4.30;67.60;;;3.43;52.28;94075.16;4930582;29;20274;-89
2022/01/31 08:31:17;;;;;;;12.77;3.60;;;4.30;67.60;;;3.47;51.92;94060.09;4941679;29;20218;-89
2022/01/31 08:34:05;;;;;;;7.47;3.10;;;4.40;67.60;;;3.51;51.66;94051.78;4924821;29;20218;-89
2022/01/31 08:36:34;;;;;;;8.38;3.20;;;4.40;67.70;;;3.57;51.69;94062.47;4942781;29;20254;-89
2022/01/31 08:39:17;;;;;;;9.50;2.90;;;4.40;68.10;;;3.61;51.58;94058.56;4937287;29;20699;-90
2022/01/31 08:41:49;;;;;;;10.07;3.05;;;4.50;67.60;;;3.66;51.72;94043.28;4939163;29;20262;-89
2022/01/31 08:44:20;;;;;;;5.72;2.63;;;4.50;67.50;;;3.72;51.54;94028.84;4935887;29;20231;-89
2022/01/31 08:46:49;;;;;;;8.30;2.80;;;4.60;67.60;;;3.77;51.04;94031.72;4928286;29;20203;-89
2022/01/31 08:49:18;;;;;;;8.00;2.92;;;4.60;67.50;;;3.81;51.58;94027.81;4939130;29;20219;-89
2022/01/31 08:51:49;;;;;;;8.45;2.60;;;4.60;67.50;;;3.81;51.36;94026.03;4939150;29;20223;-89
2022/01/31 08:54:19;;;;;;;12.38;3.47;;;4.70;67.50;;;3.84;51.32;94015.31;4960120;28;20246;-90
2022/01/31 08:56:48;;;;;;;7.18;2.60;;;4.70;67.50;;;3.92;51.48;94029.19;4938956;29;20204;-90
2022/01/31 08:59:19;;;;;;;6.80;3.30;;;4.70;67.40;;;3.87;51.41;94013.34;4936831;29;20236;-90
2022/01/31 09:02:03;;;;;;;10.60;3.13;;;4.70;67.40;;;3.88;51.13;94002.00;4946084;28;20208;-89
2022/01/31 09:04:41;;;;;;;6.45;3.05;;;4.70;67.30;;;3.93;51.32;94010.06;4938961;29;20227;-89
2022/01/31 09:07:09;;;;;;;9.02;3.40;;;4.80;67.40;;;3.90;51.28;94000.03;4939051;29;20217;-89
2022/01/31 09:09:38;;;;;;;6.88;2.90;;;4.80;67.40;;;3.95;51.51;93995.13;4923487;29;20211;-89
2022/01/31 09:12:08;;;;;;;7.28;2.58;;;4.80;67.50;;;3.96;51.17;93981.97;4938207;29;20227;-89
2022/01/31 09:14:37;;;;;;;12.70;3.38;;;4.80;67.40;;;3.98;51.77;93987.81;4939217;28;20249;-91
2022/01/31 09:17:11;;;;;;;9.43;3.42;;;4.80;67.50;;;4.00;51.52;93972.88;4938920;29;20242;-89
2022/01/31 09:19:39;;;;;;;12.38;3.22;;;4.90;67.60;;;3.98;52.04;93974.84;4923093;29;20227;-88
2022/01/31 09:22:07;;;;;;;7.82;2.92;;;4.90;68.50;;;4.01;51.87;93947.72;4956551;28;20203;-88
2022/01/31 09:24:38;;;;;;;11.10;3.47;;;5.00;67.70;;;4.02;51.90;93931.19;4922963;29;20227;-89
2022/01/31 09:27:11;;;;;;;6.82;3.10;;;4.90;67.70;;;4.07;51.69;93925.47;4943956;28;20215;-88
2022/01/31 09:29:50;;;;;;;6.80;3.03;;;5.00;67.80;;;4.06;51.60;93932.44;4941143;29;20223;-89
2022/01/31 09:32:22;;;;;;;7.95;2.80;;;5.00;67.70;;;4.09;51.42;93929.50;4945397;28;20705;-88
2022/01/31 09:34:52;;;;;;;10.18;3.30;;;5.00;67.70;;;4.10;51.72;93917.31;4921860;29;20223;-90
2022/01/31 09:37:21;;;;;;;8.82;2.97;;;5.00;67.60;;;4.17;51.54;93939.00;4943824;29;20619;-88
2022/01/31 09:39:51;;;;;;;5.95;3.05;;;5.00;67.70;;;4.18;51.69;93934.63;4950397;29;20306;-89
2022/01/31 09:42:32;;;;;;;7.03;2.50;;;5.00;68.00;;;4.18;51.32;93927.63;4936106;29;20688;-89
2022/01/31 09:45:14;;;;;;;6.22;2.47;;;5.00;67.70;;;4.18;51.49;93916.47;4942580;28;20227;-87
2022/01/31 09:50:27;;;;;;;5.97;2.88;;;5.10;67.70;;;4.23;51.56;93904.53;4938040;29;20231;-90
2022/01/31 09:52:55;;;;;;;7.18;3.50;;;5.10;67.70;;;4.21;51.65;93884.94;4923692;28;20745;-89
2022/01/31 09:55:27;;;;;;;9.93;3.80;;;5.10;67.80;;;4.27;52.12;93869.47;4968640;28;20219;-89
2022/01/31 09:57:56;;;;;;;9.43;3.83;;;5.10;67.90;;;4.31;51.99;93878.50;4931809;29;20673;-89
2022/01/31 10:00:34;;;;;;;12.68;3.83;;;5.20;68.00;;;4.36;52.26;93871.97;4932316;29;20223;-89
2022/01/31 10:03:09;;;;;;;10.80;3.30;;;5.20;68.10;;;4.39;52.17;93864.63;4939579;28;20200;-89
2022/01/31 10:05:39;;;;;;;8.40;3.75;;;5.20;68.10;;;4.46;52.01;93862.13;4938302;28;20211;-89
2022/01/31 10:08:15;;;;;;;5.05;3.17;;;5.30;68.20;;;4.48;52.24;93840.19;4937117;29;20236;-90
2022/01/31 10:10:45;;;;;;;6.40;2.90;;;5.30;68.20;;;4.54;52.31;93833.47;4935553;29;20235;-89
2022/01/31 10:16:28;;;;;;;7.90;3.28;;;5.40;68.30;;;4.57;52.24;93825.31;4945429;29;20195;-87
2022/01/31 10:19:18;;;;;;;8.82;3.38;;;5.40;68.30;;;4.64;52.63;93830.59;4921653;29;20286;-89
2022/01/31 10:22:07;;;;;;;8.63;3.40;;;5.40;68.40;;;4.65;52.29;93817.41;4922130;29;20211;-89
2022/01/31 10:24:36;;;;;;;9.43;3.75;;;5.50;68.50;;;4.65;52.34;93804.44;4936451;29;20235;-87
2022/01/31 10:27:18;;;;;;;6.78;2.97;;;5.50;68.50;;;4.68;52.28;93782.47;4935581;29;20650;-88
2022/01/31 10:29:48;;;;;;;7.22;3.30;;;5.50;68.70;;;4.83;52.43;93794.63;4949496;29;20259;-88
2022/01/31 10:32:30;;;;;;;9.45;4.20;;;5.50;68.60;;;4.90;52.38;93785.09;4960474;28;20277;-88
2022/01/31 10:35:06;;;;;;;9.10;3.97;;;5.60;68.70;;;4.89;53.16;93781.69;4952382;29;20223;-86
2022/01/31 10:37:36;;;;;;;8.70;4.38;;;5.60;69.00;;;5.00;52.83;93764.81;4934033;29;20207;-87
2022/01/31 10:54:35;;;;;;;7.45;3.22;;;6.10;70.10;;;5.66;53.49;93722.13;4959638;28;20693;-86
2022/01/31 10:57:19;;;;;;;6.25;3.05;;;6.20;70.20;;;5.80;53.46;93725.63;4939059;29;20195;-87
2022/01/31 10:59:50;;;;;;;6.28;3.15;;;6.30;70.20;;;5.75;53.65;93707.19;4936658;29;20242;-88
2022/01/31 11:02:26;;;;;;;5.30;3.00;;;6.40;70.10;;;5.86;53.81;93708.41;4936974;29;20203;-87
2022/01/31 11:04:54;;;;;;;6.00;3.03;;;6.40;70.30;;;5.96;53.87;93693.25;4937402;29;20219;-87